Time;durP1;ratioP1;P1;durP2;ratioP2;P2;SDS_P1;SDS_P2;PMS_P1;PMS_P2;Temp;Humidity;BMP_temperature;BMP_pressure;BME280_temperature;BME280_humidity;BME280_pressure;Samples;Min_cycle;Max_cycle;Signal;HPM_P1;HPM_P2
2023/04/11 00:00:09;;;;;;;1.87;1.50;;;;;;;;;;4974878;28;20424;-89
2023/04/11 00:02:37;;;;;;;2.43;1.73;;;;;;;;;;4967387;28;20588;-91
2023/04/11 00:05:04;;;;;;;3.50;1.60;;;;;;;;;;4964828;28;20421;-90
2023/04/11 00:07:30;;;;;;;1.97;1.77;;;;;;;;;;4966309;28;20452;-90
2023/04/11 00:09:56;;;;;;;1.80;1.20;;;;;;;;;;4970051;28;20600;-91
2023/04/11 00:12:22;;;;;;;4.33;1.80;;;;;;;;;;4976861;28;20426;-90
2023/04/11 00:14:48;;;;;;;3.43;1.97;;;;;;;;;;4966554;28;20436;-90
2023/04/11 00:17:17;;;;;;;3.90;1.90;;;;;;;;;;4979288;28;20420;-90
2023/04/11 00:19:45;;;;;;;2.00;1.47;;;;;;;;;;4973792;28;20475;-91
2023/04/11 00:22:12;;;;;;;3.00;1.60;;;;;;;;;;4966726;28;20429;-91
2023/04/11 00:24:38;;;;;;;1.73;1.40;;;;;;;;;;4971081;28;20436;-91
2023/04/11 00:27:05;;;;;;;2.53;1.53;;;;;;;;;;4970719;28;20456;-90
2023/04/11 00:29:32;;;;;;;2.43;1.83;;;;;;;;;;4975203;28;20487;-90
2023/04/11 00:31:59;;;;;;;2.37;1.47;;;;;;;;;;4970257;28;20437;-90
2023/04/11 00:34:26;;;;;;;2.10;1.60;;;;;;;;;;4980122;28;20431;-90
2023/04/11 00:36:52;;;;;;;1.73;1.63;;;;;;;;;;4968212;28;21070;-90
2023/04/11 00:39:19;;;;;;;3.40;1.47;;;;;;;;;;4975352;28;20932;-90
2023/04/11 00:41:45;;;;;;;1.80;1.60;;;;;;;;;;4967176;28;20448;-90
2023/04/11 00:44:12;;;;;;;2.33;1.80;;;;;;;;;;4971685;28;20925;-90
2023/04/11 00:46:40;;;;;;;3.10;1.77;;;;;;;;;;4965675;28;20543;-91
2023/04/11 00:49:06;;;;;;;3.73;1.73;;;;;;;;;;4968724;28;20441;-90
2023/04/11 00:51:32;;;;;;;2.40;1.37;;;;;;;;;;4972403;28;20463;-90
2023/04/11 00:53:58;;;;;;;4.17;1.47;;;;;;;;;;4968250;28;20472;-90
2023/04/11 00:56:24;;;;;;;2.70;1.53;;;;;;;;;;4962194;28;20492;-90
2023/04/11 00:58:50;;;;;;;2.50;1.67;;;;;;;;;;4969477;28;20511;-90
2023/04/11 01:01:18;;;;;;;2.80;1.30;;;;;;;;;;4978299;28;20492;-90
2023/04/11 01:03:44;;;;;;;3.57;2.00;;;;;;;;;;4972278;28;20432;-90
2023/04/11 01:06:11;;;;;;;5.60;1.60;;;;;;;;;;4974496;28;20459;-90
2023/04/11 01:08:37;;;;;;;1.70;1.20;;;;;;;;;;4965037;28;20421;-90
2023/04/11 01:11:04;;;;;;;3.27;1.80;;;;;;;;;;4968211;28;20493;-89
2023/04/11 01:13:30;;;;;;;4.10;1.53;;;;;;;;;;4959758;28;20457;-90
2023/04/11 01:15:56;;;;;;;3.07;1.63;;;;;;;;;;4964754;28;20413;-90
2023/04/11 01:18:22;;;;;;;2.37;1.90;;;;;;;;;;4981900;28;20437;-90
2023/04/11 01:20:49;;;;;;;2.40;1.63;;;;;;;;;;4970107;28;20437;-90
2023/04/11 01:23:19;;;;;;;3.13;1.57;;;;;;;;;;4967720;28;20448;-90
2023/04/11 01:25:45;;;;;;;3.90;1.60;;;;;;;;;;4968590;28;20445;-89
2023/04/11 01:28:11;;;;;;;1.83;1.40;;;;;;;;;;4966017;28;20454;-90
2023/04/11 01:30:37;;;;;;;2.77;2.10;;;;;;;;;;4968245;28;20797;-89
2023/04/11 01:33:03;;;;;;;5.20;1.83;;;;;;;;;;4977795;28;20491;-89
2023/04/11 01:35:29;;;;;;;2.73;1.70;;;;;;;;;;4982463;28;20421;-89
2023/04/11 01:37:55;;;;;;;2.73;1.80;;;;;;;;;;4961089;28;20456;-90
2023/04/11 01:40:22;;;;;;;3.60;1.80;;;;;;;;;;4975648;28;20476;-89
2023/04/11 01:42:50;;;;;;;2.50;1.63;;;;;;;;;;4980730;28;20973;-88
2023/04/11 01:45:16;;;;;;;2.17;1.73;;;;;;;;;;4945172;28;20581;-89
2023/04/11 01:47:42;;;;;;;2.47;1.97;;;;;;;;;;4947018;28;21290;-89
2023/04/11 01:50:10;;;;;;;1.90;1.40;;;;;;;;;;4952976;28;20483;-89
2023/04/11 01:52:36;;;;;;;2.37;1.73;;;;;;;;;;4961577;28;20438;-88
2023/04/11 01:55:02;;;;;;;2.43;1.50;;;;;;;;;;4961664;28;20852;-89
2023/04/11 01:57:29;;;;;;;2.03;1.40;;;;;;;;;;4946991;29;20443;-89
2023/04/11 01:59:54;;;;;;;2.23;1.40;;;;;;;;;;4958059;28;20445;-89
2023/04/11 02:02:20;;;;;;;2.50;1.87;;;;;;;;;;4956150;28;20433;-89
2023/04/11 02:04:46;;;;;;;2.40;1.50;;;;;;;;;;4944555;28;20421;-89
2023/04/11 02:07:13;;;;;;;2.37;1.70;;;;;;;;;;4949301;28;20522;-89
2023/04/11 02:09:39;;;;;;;2.73;1.73;;;;;;;;;;4961938;28;20504;-90
2023/04/11 02:12:05;;;;;;;2.37;1.70;;;;;;;;;;4953179;28;20430;-89
2023/04/11 02:14:41;;;;;;;2.50;2.20;;;;;;;;;;4975303;28;20439;-90
2023/04/11 02:17:08;;;;;;;1.70;1.33;;;;;;;;;;4967927;28;20457;-90
2023/04/11 02:19:34;;;;;;;2.90;1.70;;;;;;;;;;4973047;28;21132;-88
2023/04/11 02:22:01;;;;;;;1.47;1.13;;;;;;;;;;4953578;28;20491;-89
2023/04/11 02:24:30;;;;;;;3.00;1.47;;;;;;;;;;4978141;28;20445;-89
2023/04/11 02:26:56;;;;;;;1.77;1.17;;;;;;;;;;4971394;28;20452;-90
2023/04/11 02:29:22;;;;;;;1.70;1.30;;;;;;;;;;4994454;28;20436;-89
2023/04/11 02:31:48;;;;;;;1.57;1.03;;;;;;;;;;4953034;28;20449;-91
2023/04/11 02:34:14;;;;;;;5.07;1.20;;;;;;;;;;4978745;28;20440;-90
2023/04/11 02:36:42;;;;;;;1.40;0.90;;;;;;;;;;4986710;28;20492;-90
2023/04/11 02:39:08;;;;;;;2.97;1.10;;;;;;;;;;4959607;28;20441;-90
2023/04/11 02:41:37;;;;;;;1.60;0.90;;;;;;;;;;4968451;28;20443;-90
2023/04/11 02:44:03;;;;;;;2.77;1.17;;;;;;;;;;4968852;28;20429;-90
2023/04/11 02:46:29;;;;;;;1.73;1.00;;;;;;;;;;4969284;28;20452;-90
2023/04/11 02:48:55;;;;;;;1.93;1.03;;;;;;;;;;4965575;28;20440;-90
2023/04/11 02:51:21;;;;;;;1.57;0.97;;;;;;;;;;4968649;28;20463;-90
2023/04/11 02:53:47;;;;;;;2.27;1.17;;;;;;;;;;4982502;28;20444;-90
2023/04/11 02:56:17;;;;;;;1.50;1.00;;;;;;;;;;4994812;28;20459;-90
2023/04/11 02:58:43;;;;;;;1.50;0.97;;;;;;;;;;4984833;28;20452;-90
2023/04/11 03:01:10;;;;;;;1.50;1.07;;;;;;;;;;4982992;28;20505;-89
2023/04/11 03:03:37;;;;;;;2.10;1.53;;;;;;;;;;4968774;28;20432;-90
2023/04/11 03:06:03;;;;;;;2.70;1.30;;;;;;;;;;4986474;28;20455;-90
2023/04/11 03:08:29;;;;;;;1.83;1.17;;;;;;;;;;4963992;28;20930;-91
2023/04/11 03:10:55;;;;;;;1.40;1.10;;;;;;;;;;4966939;28;20437;-90
2023/04/11 03:13:21;;;;;;;1.37;0.90;;;;;;;;;;4979492;28;20432;-91
2023/04/11 03:15:47;;;;;;;2.13;1.23;;;;;;;;;;4977469;28;20547;-90
2023/04/11 03:18:13;;;;;;;1.80;1.03;;;;;;;;;;4972933;28;20800;-90
2023/04/11 03:20:39;;;;;;;1.20;0.80;;;;;;;;;;4977936;28;20441;-90
2023/04/11 03:23:05;;;;;;;5.20;1.07;;;;;;;;;;4967916;28;20429;-90
2023/04/11 03:25:31;;;;;;;1.80;1.07;;;;;;;;;;4970120;28;20433;-90
2023/04/11 03:27:57;;;;;;;1.37;0.80;;;;;;;;;;4970673;28;20462;-90
2023/04/11 03:30:23;;;;;;;4.13;1.10;;;;;;;;;;4970357;28;20994;-90
2023/04/11 03:32:51;;;;;;;1.40;1.00;;;;;;;;;;4983303;28;20433;-90
2023/04/11 03:35:19;;;;;;;2.10;1.50;;;;;;;;;;4991682;28;20427;-91
2023/04/11 03:37:45;;;;;;;1.50;0.87;;;;;;;;;;4970350;28;20441;-93
2023/04/11 03:40:11;;;;;;;4.03;0.93;;;;;;;;;;4967774;28;20516;-92
2023/04/11 03:42:37;;;;;;;1.97;1.83;;;;;;;;;;4974991;28;20428;-93
2023/04/11 03:45:06;;;;;;;3.50;0.90;;;;;;;;;;4983412;28;20452;-92
2023/04/11 03:47:32;;;;;;;1.77;1.30;;;;;;;;;;4969054;28;21103;-92
2023/04/11 03:50:00;;;;;;;2.13;1.13;;;;;;;;;;4965319;28;20472;-91
2023/04/11 03:52:25;;;;;;;3.67;1.30;;;;;;;;;;4979208;28;20464;-92
2023/04/11 03:54:51;;;;;;;1.20;0.90;;;;;;;;;;4984294;28;20744;-92
2023/04/11 03:57:17;;;;;;;1.83;1.10;;;;;;;;;;4963760;28;20438;-92
2023/04/11 03:59:46;;;;;;;8.33;1.47;;;;;;;;;;4947081;28;20449;-92
2023/04/11 04:02:13;;;;;;;2.00;1.10;;;;;;;;;;4949618;28;20437;-93
2023/04/11 04:04:39;;;;;;;1.33;0.90;;;;;;;;;;4949093;28;20497;-92
2023/04/11 04:07:05;;;;;;;1.60;1.07;;;;;;;;;;4950564;28;20473;-91
2023/04/11 04:09:31;;;;;;;2.90;1.33;;;;;;;;;;4950276;28;20580;-92
2023/04/11 04:12:00;;;;;;;1.20;0.80;;;;;;;;;;4949624;28;20672;-92
2023/04/11 04:14:26;;;;;;;2.10;1.03;;;;;;;;;;4948052;28;20437;-91
2023/04/11 04:16:52;;;;;;;3.53;1.67;;;;;;;;;;4952940;28;20410;-91
2023/04/11 04:19:18;;;;;;;2.60;1.30;;;;;;;;;;4962712;28;20974;-91
2023/04/11 04:21:45;;;;;;;2.70;1.27;;;;;;;;;;4957040;28;20437;-91
2023/04/11 04:24:11;;;;;;;2.07;1.23;;;;;;;;;;4953716;28;20453;-91
2023/04/11 04:26:38;;;;;;;2.93;1.13;;;;;;;;;;4946976;28;20474;-91
2023/04/11 04:29:08;;;;;;;2.30;1.00;;;;;;;;;;4970830;28;20451;-91
2023/04/11 04:31:34;;;;;;;3.00;1.30;;;;;;;;;;4979084;28;20535;-94
2023/04/11 04:34:07;;;;;;;4.47;1.40;;;;;;;;;;4969889;28;20448;-92
2023/04/11 04:36:45;;;;;;;3.20;1.30;;;;;;;;;;4968253;28;20441;-93
2023/04/11 04:39:16;;;;;;;2.07;1.17;;;;;;;;;;4967577;28;20512;-93
2023/04/11 04:41:42;;;;;;;1.67;1.10;;;;;;;;;;4968552;28;21231;-93
2023/04/11 04:44:09;;;;;;;1.40;0.90;;;;;;;;;;4966827;28;20433;-93
2023/04/11 04:46:35;;;;;;;2.90;0.83;;;;;;;;;;4972805;28;20479;-94
2023/04/11 04:49:04;;;;;;;1.00;0.70;;;;;;;;;;4978729;28;20431;-92
2023/04/11 04:51:30;;;;;;;2.17;0.80;;;;;;;;;;4965859;28;20464;-89
2023/04/11 04:53:58;;;;;;;1.70;1.03;;;;;;;;;;4963797;28;20436;-87
2023/04/11 04:56:27;;;;;;;2.27;1.00;;;;;;;;;;4969874;28;20992;-88
2023/04/11 04:58:53;;;;;;;1.30;1.00;;;;;;;;;;4964400;28;20447;-88
2023/04/11 05:01:20;;;;;;;1.73;1.10;;;;;;;;;;4961575;28;20469;-87
2023/04/11 05:03:49;;;;;;;2.87;1.00;;;;;;;;;;4967388;28;20839;-87
2023/04/11 05:06:15;;;;;;;1.97;1.00;;;;;;;;;;4961664;28;20923;-88
2023/04/11 05:08:41;;;;;;;1.97;1.00;;;;;;;;;;4982199;28;20471;-89
2023/04/11 05:11:07;;;;;;;8.30;1.63;;;;;;;;;;4975656;28;20475;-88
2023/04/11 05:13:33;;;;;;;2.37;1.40;;;;;;;;;;4972689;28;20447;-88
2023/04/11 05:15:59;;;;;;;2.47;1.00;;;;;;;;;;4960556;28;20436;-89
2023/04/11 05:18:28;;;;;;;2.60;1.10;;;;;;;;;;4959746;28;20491;-88
2023/04/11 05:20:54;;;;;;;3.10;0.90;;;;;;;;;;4959657;28;20428;-88
2023/04/11 05:23:20;;;;;;;1.47;1.23;;;;;;;;;;4971691;28;20443;-88
2023/04/11 05:25:46;;;;;;;1.83;1.20;;;;;;;;;;4969489;28;20428;-88
2023/04/11 05:28:12;;;;;;;2.03;1.10;;;;;;;;;;4980159;28;20924;-88
2023/04/11 05:30:37;;;;;;;2.43;1.20;;;;;;;;;;4960926;28;20429;-88
2023/04/11 05:33:03;;;;;;;1.77;1.03;;;;;;;;;;4983565;28;20524;-87
2023/04/11 05:35:30;;;;;;;1.50;0.80;;;;;;;;;;4979475;28;20428;-88
2023/04/11 05:37:57;;;;;;;1.50;0.93;;;;;;;;;;4961186;28;20447;-88
2023/04/11 05:40:23;;;;;;;4.93;1.60;;;;;;;;;;4963201;28;20432;-89
2023/04/11 05:42:49;;;;;;;2.83;1.20;;;;;;;;;;4968072;28;20409;-88
2023/04/11 05:45:15;;;;;;;1.77;1.13;;;;;;;;;;4962078;28;20867;-87
2023/04/11 05:47:41;;;;;;;1.30;1.00;;;;;;;;;;4959772;28;20517;-88
2023/04/11 05:50:07;;;;;;;4.10;1.20;;;;;;;;;;4960219;28;20417;-88
2023/04/11 05:52:33;;;;;;;2.40;1.40;;;;;;;;;;4962747;28;20476;-88
2023/04/11 05:55:00;;;;;;;2.60;1.03;;;;;;;;;;4980136;28;20469;-88
2023/04/11 05:57:26;;;;;;;3.53;1.00;;;;;;;;;;4975503;28;20437;-90
2023/04/11 05:59:52;;;;;;;1.93;1.10;;;;;;;;;;4965290;28;20421;-94
2023/04/11 06:02:18;;;;;;;4.00;1.10;;;;;;;;;;4963789;28;20560;-94
2023/04/11 06:04:44;;;;;;;1.27;0.97;;;;;;;;;;4964418;28;20428;-93
2023/04/11 06:07:11;;;;;;;1.83;1.20;;;;;;;;;;4962640;28;20453;-93
2023/04/11 06:09:38;;;;;;;3.33;1.50;;;;;;;;;;4960880;28;20872;-93
2023/04/11 06:12:04;;;;;;;1.50;1.20;;;;;;;;;;4954504;28;20441;-93
2023/04/11 06:14:31;;;;;;;1.30;1.00;;;;;;;;;;4961100;28;20945;-94
2023/04/11 06:16:56;;;;;;;2.43;1.10;;;;;;;;;;4962522;28;20998;-93
2023/04/11 06:19:22;;;;;;;2.90;1.20;;;;;;;;;;4977783;28;20482;-92
2023/04/11 06:21:49;;;;;;;1.90;1.20;;;;;;;;;;4966119;28;20436;-95
2023/04/11 06:24:18;;;;;;;2.43;1.30;;;;;;;;;;4964234;28;20437;-94
2023/04/11 06:26:44;;;;;;;2.03;0.90;;;;;;;;;;4968347;28;20449;-96
2023/04/11 06:29:10;;;;;;;6.50;1.07;;;;;;;;;;4966035;28;20463;-94
2023/04/11 06:31:36;;;;;;;1.50;0.90;;;;;;;;;;4966124;28;20437;-92
2023/04/11 06:34:02;;;;;;;5.73;1.27;;;;;;;;;;4966875;28;20464;-94
2023/04/11 06:36:29;;;;;;;2.80;0.93;;;;;;;;;;4960609;28;20440;-93
2023/04/11 06:38:55;;;;;;;2.70;1.20;;;;;;;;;;4971241;28;20433;-94
2023/04/11 06:41:21;;;;;;;2.10;0.90;;;;;;;;;;4965094;28;20436;-94
2023/04/11 06:43:47;;;;;;;1.57;0.90;;;;;;;;;;4954974;28;20425;-93
2023/04/11 06:46:13;;;;;;;1.90;1.00;;;;;;;;;;4958822;28;20512;-94
2023/04/11 06:48:39;;;;;;;2.70;1.20;;;;;;;;;;4955909;28;20492;-94
2023/04/11 06:51:08;;;;;;;4.10;2.10;;;;;;;;;;4980584;28;20484;-93
2023/04/11 06:53:34;;;;;;;5.60;1.30;;;;;;;;;;4969913;28;20440;-93
2023/04/11 06:56:00;;;;;;;3.13;1.10;;;;;;;;;;4971985;28;20858;-93
2023/04/11 06:58:26;;;;;;;1.90;1.20;;;;;;;;;;4966552;28;20792;-92
2023/04/11 07:00:52;;;;;;;2.67;0.93;;;;;;;;;;4975285;28;20433;-92
2023/04/11 07:03:19;;;;;;;3.73;1.20;;;;;;;;;;4972558;28;21207;-94
2023/04/11 07:05:45;;;;;;;1.60;0.93;;;;;;;;;;4968429;28;20413;-93
2023/04/11 07:08:11;;;;;;;1.87;1.13;;;;;;;;;;4990494;28;20417;-93
2023/04/11 07:10:37;;;;;;;2.03;0.97;;;;;;;;;;4965359;28;20783;-93
2023/04/11 07:13:03;;;;;;;2.90;1.07;;;;;;;;;;4961833;28;20417;-94
2023/04/11 07:15:29;;;;;;;2.23;1.00;;;;;;;;;;4963923;28;20437;-94
2023/04/11 07:17:55;;;;;;;3.00;1.00;;;;;;;;;;4965589;28;20437;-95
2023/04/11 07:20:21;;;;;;;4.43;0.87;;;;;;;;;;4968216;28;20452;-94
2023/04/11 07:22:47;;;;;;;1.90;0.90;;;;;;;;;;4969870;28;20413;-94
2023/04/11 07:25:13;;;;;;;4.80;0.90;;;;;;;;;;4984793;28;20431;-95
2023/04/11 07:27:42;;;;;;;2.70;0.87;;;;;;;;;;4965120;28;20457;-94
2023/04/11 07:30:08;;;;;;;2.83;1.40;;;;;;;;;;4968954;28;20447;-94
2023/04/11 07:32:35;;;;;;;5.47;2.20;;;;;;;;;;4993059;28;20420;-93
2023/04/11 07:35:01;;;;;;;5.10;1.13;;;;;;;;;;4968599;28;20414;-94
2023/04/11 07:37:29;;;;;;;10.63;1.60;;;;;;;;;;4963197;28;20433;-93
2023/04/11 07:39:55;;;;;;;1.17;0.80;;;;;;;;;;4970514;28;20531;-93
2023/04/11 07:42:21;;;;;;;2.70;1.10;;;;;;;;;;4968051;28;20433;-93
2023/04/11 07:44:47;;;;;;;3.17;1.97;;;;;;;;;;4963698;28;20452;-93
2023/04/11 07:47:13;;;;;;;1.80;1.30;;;;;;;;;;4966561;28;20540;-94
2023/04/11 07:49:39;;;;;;;2.70;1.30;;;;;;;;;;4972270;28;20484;-93
2023/04/11 07:52:05;;;;;;;3.77;1.47;;;;;;;;;;4967103;28;20442;-92
2023/04/11 07:54:31;;;;;;;4.00;1.47;;;;;;;;;;4981606;28;20420;-95
2023/04/11 07:56:58;;;;;;;3.73;1.87;;;;;;;;;;4971238;28;20803;-94
2023/04/11 07:59:24;;;;;;;2.10;1.10;;;;;;;;;;4969248;28;20459;-94
2023/04/11 08:01:57;;;;;;;2.90;1.57;;;;;;;;;;4972156;28;20428;-93
2023/04/11 08:04:23;;;;;;;2.93;1.90;;;;;;;;;;4974050;28;20424;-93
2023/04/11 08:06:50;;;;;;;4.37;1.60;;;;;;;;;;4974920;28;20516;-93
2023/04/11 08:09:16;;;;;;;3.07;1.40;;;;;;;;;;4974980;28;20417;-95
2023/04/11 08:11:43;;;;;;;5.63;1.40;;;;;;;;;;4972442;28;20417;-95
2023/04/11 08:14:09;;;;;;;2.37;1.33;;;;;;;;;;4970893;28;20426;-93
2023/04/11 08:16:35;;;;;;;9.60;1.93;;;;;;;;;;4972160;28;20439;-94
2023/04/11 08:19:06;;;;;;;3.00;1.20;;;;;;;;;;4976617;28;20433;-95
2023/04/11 08:21:32;;;;;;;5.17;1.30;;;;;;;;;;5006362;28;20425;-92
2023/04/11 08:23:59;;;;;;;9.33;2.17;;;;;;;;;;4975233;28;20976;-95
2023/04/11 08:26:25;;;;;;;2.30;1.20;;;;;;;;;;4967836;28;20436;-94
2023/04/11 08:28:51;;;;;;;4.37;1.17;;;;;;;;;;4966453;28;20432;-92
2023/04/11 08:31:17;;;;;;;3.87;1.77;;;;;;;;;;4984660;28;20450;-93
2023/04/11 08:33:43;;;;;;;2.10;1.13;;;;;;;;;;4978312;28;20482;-95
2023/04/11 08:36:10;;;;;;;2.00;1.40;;;;;;;;;;4976751;28;20799;-94
2023/04/11 08:38:36;;;;;;;1.67;1.27;;;;;;;;;;4971698;28;20436;-96
2023/04/11 08:41:02;;;;;;;4.77;1.43;;;;;;;;;;4968259;28;20485;-96
2023/04/11 08:43:29;;;;;;;10.20;3.07;;;;;;;;;;4954312;28;20430;-96
2023/04/11 08:45:55;;;;;;;5.10;1.57;;;;;;;;;;4966420;28;20418;-93
2023/04/11 08:48:24;;;;;;;2.00;1.13;;;;;;;;;;4954984;28;20822;-95
2023/04/11 08:50:51;;;;;;;4.80;2.43;;;;;;;;;;4967649;28;20473;-95
2023/04/11 08:53:18;;;;;;;4.80;1.63;;;;;;;;;;4950265;28;20426;-95
2023/04/11 08:55:47;;;;;;;6.10;1.63;;;;;;;;;;4949544;28;20466;-94
2023/04/11 08:58:13;;;;;;;4.80;1.67;;;;;;;;;;4966855;28;20952;-94
2023/04/11 09:00:39;;;;;;;3.73;1.50;;;;;;;;;;4983875;28;20429;-94
2023/04/11 09:03:06;;;;;;;5.90;1.63;;;;;;;;;;4965569;28;20442;-95
2023/04/11 09:05:40;;;;;;;7.47;1.23;;;;;;;;;;4948701;28;20460;-94
2023/04/11 09:08:07;;;;;;;2.40;1.00;;;;;;;;;;4945709;29;20439;-94
2023/04/11 09:10:33;;;;;;;4.63;1.10;;;;;;;;;;4964876;28;20930;-89
2023/04/11 09:13:01;;;;;;;5.73;1.30;;;;;;;;;;4959518;28;20441;-93
2023/04/11 09:15:31;;;;;;;3.47;1.30;;;;;;;;;;5004676;28;20482;-92
2023/04/11 09:17:57;;;;;;;9.53;1.80;;;;;;;;;;4978944;28;20483;-94
2023/04/11 09:20:29;;;;;;;2.10;1.13;;;;;;;;;;4967838;28;20696;-93
2023/04/11 09:22:55;;;;;;;4.53;1.70;;;;;;;;;;4968766;28;20461;-95
2023/04/11 09:25:21;;;;;;;2.90;1.50;;;;;;;;;;4971270;28;20452;-94
2023/04/11 09:27:48;;;;;;;1.70;1.40;;;;;;;;;;4968945;28;20467;-94
2023/04/11 09:30:32;;;;;;;4.47;1.40;;;;;;;;;;4968282;28;20794;-94
2023/04/11 09:32:58;;;;;;;2.80;1.33;;;;;;;;;;4982106;28;20453;-95
2023/04/11 09:35:27;;;;;;;2.20;1.10;;;;;;;;;;4962186;28;20437;-93
2023/04/11 09:38:02;;;;;;;2.27;1.30;;;;;;;;;;4967564;28;20441;-94
2023/04/11 09:40:32;;;;;;;2.70;1.10;;;;;;;;;;4990066;28;20797;-96
2023/04/11 09:42:58;;;;;;;2.43;1.47;;;;;;;;;;4984241;28;20414;-94
2023/04/11 09:45:25;;;;;;;3.93;1.20;;;;;;;;;;4979134;28;20413;-93
2023/04/11 09:47:54;;;;;;;7.20;1.23;;;;;;;;;;4971931;28;20460;-93
2023/04/11 09:50:21;;;;;;;6.50;2.23;;;;;;;;;;4962457;28;20949;-94
2023/04/11 09:52:47;;;;;;;2.10;1.20;;;;;;;;;;4928940;29;20507;-94
2023/04/11 09:55:17;;;;;;;3.63;1.50;;;;;;;;;;4930738;29;20571;-94
2023/04/11 09:57:45;;;;;;;3.27;1.40;;;;;;;;;;4944016;29;20514;-95
2023/04/11 10:00:17;;;;;;;3.50;0.93;;;;;;;;;;4931119;29;20427;-94
2023/04/11 10:02:44;;;;;;;4.03;1.50;;;;;;;;;;4928470;29;20453;-93
2023/04/11 10:05:12;;;;;;;2.50;1.10;;;;;;;;;;4928301;29;20558;-95
2023/04/11 10:07:44;;;;;;;4.40;1.57;;;;;;;;;;4931920;29;20953;-96
2023/04/11 10:10:15;;;;;;;1.90;1.20;;;;;;;;;;4929852;29;20497;-95
2023/04/11 10:12:41;;;;;;;1.97;1.00;;;;;;;;;;4942702;29;20445;-95
2023/04/11 10:15:10;;;;;;;2.63;1.53;;;;;;;;;;4943163;29;20434;-96
2023/04/11 10:17:36;;;;;;;2.03;1.30;;;;;;;;;;4928039;28;20451;-95
2023/04/11 10:20:04;;;;;;;4.80;1.23;;;;;;;;;;4930294;28;20575;-95
2023/04/11 10:22:42;;;;;;;4.50;1.50;;;;;;;;;;4967446;28;20448;-96
2023/04/11 10:25:17;;;;;;;7.23;2.13;;;;;;;;;;4996418;28;20458;-95
2023/04/11 10:27:47;;;;;;;8.30;1.53;;;;;;;;;;4983277;28;20464;-94
2023/04/11 10:30:13;;;;;;;7.13;1.20;;;;;;;;;;4993844;28;20901;-94
2023/04/11 10:32:40;;;;;;;8.00;1.50;;;;;;;;;;4957256;28;20432;-92
2023/04/11 10:35:19;;;;;;;3.23;1.47;;;;;;;;;;4962325;28;21731;-92
2023/04/11 10:37:47;;;;;;;2.10;1.30;;;;;;;;;;4962190;28;20437;-94
2023/04/11 10:40:13;;;;;;;6.97;2.43;;;;;;;;;;4962880;28;20515;-94
2023/04/11 10:42:40;;;;;;;2.57;1.40;;;;;;;;;;4956920;28;20433;-93
2023/04/11 10:45:16;;;;;;;1.90;1.13;;;;;;;;;;4974511;28;20433;-93
2023/04/11 10:48:04;;;;;;;7.20;1.40;;;;;;;;;;4970725;28;20477;-94
2023/04/11 10:50:30;;;;;;;2.73;1.30;;;;;;;;;;4975575;28;20488;-94
2023/04/11 10:53:00;;;;;;;1.70;1.43;;;;;;;;;;4977942;28;20457;-93
2023/04/11 10:55:27;;;;;;;2.70;1.27;;;;;;;;;;4963116;28;21021;-93
2023/04/11 10:58:09;;;;;;;2.50;1.53;;;;;;;;;;4962997;28;20436;-94
2023/04/11 11:00:52;;;;;;;5.90;1.60;;;;;;;;;;5000076;28;20437;-94
2023/04/11 11:03:19;;;;;;;2.07;1.17;;;;;;;;;;4978353;28;20417;-93
2023/04/11 11:05:45;;;;;;;5.43;1.67;;;;;;;;;;4983130;28;20802;-92
2023/04/11 11:08:11;;;;;;;2.90;1.33;;;;;;;;;;4968562;28;20429;-92
2023/04/11 11:10:38;;;;;;;3.73;1.27;;;;;;;;;;4968786;28;20444;-92
2023/04/11 11:13:04;;;;;;;3.27;1.50;;;;;;;;;;4966598;28;20787;-93
2023/04/11 11:15:36;;;;;;;3.07;1.47;;;;;;;;;;4968592;28;20437;-92
2023/04/11 11:18:09;;;;;;;1.90;1.53;;;;;;;;;;4970383;28;20861;-94
2023/04/11 11:20:36;;;;;;;4.47;2.57;;;;;;;;;;4969268;28;20441;-93
2023/04/11 11:23:06;;;;;;;2.13;1.00;;;;;;;;;;4970083;28;20444;-93
2023/04/11 11:25:32;;;;;;;6.47;1.40;;;;;;;;;;4960440;28;20449;-92
2023/04/11 11:28:04;;;;;;;8.53;3.13;;;;;;;;;;4970834;28;20848;-92
2023/04/11 11:30:30;;;;;;;6.90;1.90;;;;;;;;;;4983652;28;20432;-93
2023/04/11 11:32:56;;;;;;;2.77;1.30;;;;;;;;;;4964270;28;20528;-93
2023/04/11 11:35:23;;;;;;;3.57;1.10;;;;;;;;;;4969808;28;20421;-93
2023/04/11 11:37:52;;;;;;;4.40;1.30;;;;;;;;;;4976818;28;20444;-96
2023/04/11 11:40:20;;;;;;;4.13;1.40;;;;;;;;;;4969010;28;20453;-94
2023/04/11 11:42:47;;;;;;;6.07;1.20;;;;;;;;;;4967745;28;21004;-92
2023/04/11 11:45:17;;;;;;;8.57;1.67;;;;;;;;;;4966903;28;20441;-93
2023/04/11 11:47:43;;;;;;;4.23;1.40;;;;;;;;;;4968573;28;20461;-93
2023/04/11 11:50:22;;;;;;;2.67;1.23;;;;;;;;;;4968373;28;20433;-93
2023/04/11 11:52:48;;;;;;;2.53;1.40;;;;;;;;;;4946718;29;20458;-94
2023/04/11 11:55:26;;;;;;;1.80;1.30;;;;;;;;;;4939970;28;20455;-92
2023/04/11 11:58:09;;;;;;;3.90;1.30;;;;;;;;;;4956564;29;20432;-95
2023/04/11 12:00:41;;;;;;;2.17;1.63;;;;;;;;;;4941469;29;20452;-92
2023/04/11 12:03:12;;;;;;;2.30;1.00;;;;;;;;;;4936165;29;20439;-93
2023/04/11 12:05:46;;;;;;;3.50;1.30;;;;;;;;;;4923546;29;20420;-94
2023/04/11 12:08:28;;;;;;;5.20;1.30;;;;;;;;;;4963888;28;20429;-93
2023/04/11 12:10:54;;;;;;;4.27;1.40;;;;;;;;;;4953309;29;20837;-95
2023/04/11 12:13:36;;;;;;;4.23;1.10;;;;;;;;;;4957979;28;20439;-92
2023/04/11 12:16:08;;;;;;;3.33;1.03;;;;;;;;;;4928519;29;20428;-93
2023/04/11 12:18:34;;;;;;;5.07;1.13;;;;;;;;;;4928521;29;20430;-94
2023/04/11 12:21:00;;;;;;;1.60;1.03;;;;;;;;;;4936702;28;20494;-93
2023/04/11 12:23:27;;;;;;;1.60;0.90;;;;;;;;;;4929613;29;20798;-95
2023/04/11 12:25:53;;;;;;;3.30;2.30;;;;;;;;;;4956457;28;20475;-94
2023/04/11 12:28:20;;;;;;;3.63;1.27;;;;;;;;;;4947273;29;20430;-94
2023/04/11 12:30:52;;;;;;;2.73;1.47;;;;;;;;;;4945151;29;20486;-95
2023/04/11 12:33:24;;;;;;;4.33;1.47;;;;;;;;;;4960887;29;20502;-90
2023/04/11 12:35:56;;;;;;;2.80;1.20;;;;;;;;;;4965139;28;20449;-94
2023/04/11 12:38:25;;;;;;;5.67;2.17;;;;;;;;;;4972380;28;20959;-93
2023/04/11 12:40:52;;;;;;;3.53;1.07;;;;;;;;;;4980647;28;20443;-94
2023/04/11 12:43:23;;;;;;;6.43;1.53;;;;;;;;;;4990362;28;20420;-95
2023/04/11 12:45:49;;;;;;;5.77;1.50;;;;;;;;;;4988659;28;20404;-94
2023/04/11 12:48:15;;;;;;;7.90;1.40;;;;;;;;;;4975802;28;20491;-95
2023/04/11 12:50:42;;;;;;;6.50;1.53;;;;;;;;;;4980355;28;20448;-94
2023/04/11 12:53:08;;;;;;;2.47;1.03;;;;;;;;;;4970507;28;20531;-95
2023/04/11 12:55:34;;;;;;;1.93;1.10;;;;;;;;;;4980117;28;20429;-95
2023/04/11 12:58:11;;;;;;;2.97;1.10;;;;;;;;;;4967287;28;20422;-95
2023/04/11 13:00:45;;;;;;;3.63;1.23;;;;;;;;;;4992689;28;20459;-94
2023/04/11 13:03:11;;;;;;;2.93;1.67;;;;;;;;;;4984663;28;20421;-95
2023/04/11 13:05:38;;;;;;;2.90;1.40;;;;;;;;;;4971077;28;20429;-95
2023/04/11 13:08:04;;;;;;;4.40;1.67;;;;;;;;;;4967566;28;20490;-91
2023/04/11 13:10:34;;;;;;;6.50;1.20;;;;;;;;;;4958661;28;20457;-96
2023/04/11 13:13:00;;;;;;;5.73;1.60;;;;;;;;;;5016687;28;20413;-96
2023/04/11 13:15:26;;;;;;;3.67;1.37;;;;;;;;;;4978663;28;20472;-95
2023/04/11 13:17:53;;;;;;;2.60;1.17;;;;;;;;;;4978616;28;20448;-95
2023/04/11 13:20:31;;;;;;;;;;;;;;;;;;;;;
2023/04/11 13:22:57;;;;;;;2.37;1.23;;;;;;;;;;4990761;28;20774;-96
2023/04/11 13:25:23;;;;;;;3.93;1.70;;;;;;;;;;4969660;28;20430;-96
2023/04/11 13:27:49;;;;;;;4.20;1.20;;;;;;;;;;4971845;28;20449;-95
2023/04/11 13:30:20;;;;;;;5.43;1.60;;;;;;;;;;4987045;28;20587;-94
2023/04/11 13:32:56;;;;;;;3.10;1.67;;;;;;;;;;4944666;28;20424;-95
2023/04/11 13:35:23;;;;;;;1.60;1.10;;;;;;;;;;4970493;28;20937;-96
2023/04/11 13:37:50;;;;;;;3.17;1.40;;;;;;;;;;4969895;28;20415;-96
2023/04/11 13:40:16;;;;;;;5.23;1.63;;;;;;;;;;4984561;28;20427;-95
2023/04/11 13:42:42;;;;;;;3.67;1.30;;;;;;;;;;4969947;28;20413;-95
2023/04/11 13:45:09;;;;;;;2.60;1.53;;;;;;;;;;4981826;28;20449;-96
2023/04/11 13:47:35;;;;;;;3.30;1.27;;;;;;;;;;4971404;28;20477;-95
2023/04/11 13:50:01;;;;;;;3.50;1.20;;;;;;;;;;4964744;28;20418;-95
2023/04/11 13:52:27;;;;;;;4.10;1.20;;;;;;;;;;4949563;28;20894;-95
2023/04/11 13:54:58;;;;;;;3.23;1.57;;;;;;;;;;4950365;28;20418;-96
2023/04/11 13:57:48;;;;;;;2.57;1.57;;;;;;;;;;4968069;28;20430;-96
2023/04/11 14:00:23;;;;;;;4.23;1.77;;;;;;;;;;4960084;28;20414;-96
2023/04/11 14:05:43;;;;;;;2.20;1.13;;;;;;;;;;4968374;28;20473;-94
2023/04/11 14:08:09;;;;;;;1.90;1.03;;;;;;;;;;4966777;28;20529;-91
2023/04/11 14:10:38;;;;;;;4.50;1.73;;;;;;;;;;4971980;28;20416;-93
2023/04/11 14:13:04;;;;;;;4.50;1.30;;;;;;;;;;4947136;28;20811;-91
2023/04/11 14:15:34;;;;;;;4.47;1.20;;;;;;;;;;4968862;28;20484;-92
2023/04/11 14:18:01;;;;;;;2.00;1.30;;;;;;;;;;4959515;28;20445;-93
2023/04/11 14:20:44;;;;;;;2.67;1.23;;;;;;;;;;4979664;28;20441;-96
2023/04/11 14:23:15;;;;;;;2.50;1.00;;;;;;;;;;5006639;28;20460;-93
2023/04/11 14:25:42;;;;;;;1.70;1.23;;;;;;;;;;4970462;28;20422;-95
2023/04/11 14:28:08;;;;;;;7.70;1.23;;;;;;;;;;4976470;28;20540;-92
2023/04/11 14:30:34;;;;;;;4.27;1.30;;;;;;;;;;4966170;28;20418;-93
2023/04/11 14:33:00;;;;;;;4.33;1.23;;;;;;;;;;4962690;28;20440;-91
2023/04/11 14:35:26;;;;;;;2.27;1.23;;;;;;;;;;4963762;28;20444;-92
2023/04/11 14:37:52;;;;;;;3.63;1.20;;;;;;;;;;4966404;28;20444;-92
2023/04/11 14:40:18;;;;;;;2.40;1.20;;;;;;;;;;4971579;28;20523;-92
2023/04/11 14:42:45;;;;;;;4.17;1.40;;;;;;;;;;4965517;28;20440;-94
2023/04/11 14:45:14;;;;;;;4.37;1.40;;;;;;;;;;4986293;28;20472;-91
2023/04/11 14:47:40;;;;;;;4.70;2.73;;;;;;;;;;4972897;28;21011;-91